Relax — ILWX2 — position and weather

sailwx.info

Track history (hours):
 
Tides and Currents Weather Stations Pressure Air Temp Water Temp Dewpoint Dewpoint Depression Visibility Wind Speed Wind Dir Waves Ship Positions

Relax

Last reported at 2015-Nov-05 07:32 UTC. Time now 2016-Feb-08 10:14 UTC.
Position N 40°38' E 014°19'.
Warning: this ship's position is months out of date.

MMSI: 247277800.

Date/timePositionNaut miles runAvg speedWind from/ knotsBaromVisibWave heightAir tempDewpointWater temp
2015-Nov-05 07:32N 40°38' E 014°19'6 0.2
2015-Nov-03 14:26N 40°33' E 014°15'0 0.2
2015-Nov-03 13:33N 40°34' E 014°14'0 0.1
2015-Nov-03 12:30N 40°34' E 014°14'0 0.0
2015-Nov-03 11:33N 40°34' E 014°14'0 0.0
2015-Nov-03 10:27N 40°34' E 014°14'4 4.2
2015-Nov-03 09:31N 40°34' E 014°19'5 0.3
2015-Nov-02 15:06N 40°36' E 014°26'916.1
2015-Nov-02 14:33N 40°33' E 014°15'0 0.3
2015-Nov-02 13:33N 40°34' E 014°14'0 0.0
2015-Nov-02 12:27N 40°34' E 014°14'0 0.0
2015-Nov-02 11:33N 40°34' E 014°14'0 0.0
2015-Nov-02 10:33N 40°34' E 014°14'6 5.8
2015-Nov-02 09:32N 40°34' E 014°22'1 0.0
2015-Oct-31 15:10N 40°34' E 014°20'5 7.1
2015-Oct-31 14:32N 40°33' E 014°15'0 0.2
2015-Oct-31 13:29N 40°34' E 014°14'0 0.0
2015-Oct-31 12:28N 40°34' E 014°14'0 0.0
2015-Oct-31 11:28N 40°34' E 014°14'0 0.0
2015-Oct-31 10:22N 40°34' E 014°14'5 5.8
2015-Oct-31 09:29N 40°34' E 014°21'8 0.4
2015-Oct-30 15:32N 40°36' E 014°31'1312.7
2015-Oct-30 14:32N 40°33' E 014°15'1 0.2
2015-Oct-30 10:07N 40°34' E 014°16'3 6.0
2015-Oct-30 09:33N 40°34' E 014°20'5 0.1
2015-Oct-28 09:16N 40°36' E 014°26'9 0.5
2015-Oct-27 14:17N 40°33' E 014°14'0 0.2
2015-Oct-27 13:28N 40°34' E 014°14'0 0.0
2015-Oct-27 12:31N 40°34' E 014°14'0 0.0
2015-Oct-27 11:31N 40°34' E 014°14'0 0.0
2015-Oct-27 10:29N 40°34' E 014°14'  
Track history (hours):
 
Tides and Currents Weather Stations Pressure Air Temp Water Temp Dewpoint Dewpoint Depression Visibility Wind Speed Wind Dir Waves Ship Positions

Relax

Last reported at 2015-Nov-05 07:32 UTC. Time now 2016-Feb-08 10:14 UTC.
Position N 40°38' E 014°19'.
Warning: this ship's position is months out of date.

MMSI: 247277800.

Date/timePositionNaut miles runAvg speedWind from/ knotsBaromVisibWave heightAir tempDewpointWater temp
2015-Nov-05 07:32N 40°38' E 014°19'6 0.2
2015-Nov-03 14:26N 40°33' E 014°15'0 0.2
2015-Nov-03 13:33N 40°34' E 014°14'0 0.1
2015-Nov-03 12:30N 40°34' E 014°14'0 0.0
2015-Nov-03 11:33N 40°34' E 014°14'0 0.0
2015-Nov-03 10:27N 40°34' E 014°14'4 4.2
2015-Nov-03 09:31N 40°34' E 014°19'5 0.3
2015-Nov-02 15:06N 40°36' E 014°26'916.1
2015-Nov-02 14:33N 40°33' E 014°15'0 0.3
2015-Nov-02 13:33N 40°34' E 014°14'0 0.0
2015-Nov-02 12:27N 40°34' E 014°14'0 0.0
2015-Nov-02 11:33N 40°34' E 014°14'0 0.0
2015-Nov-02 10:33N 40°34' E 014°14'6 5.8
2015-Nov-02 09:32N 40°34' E 014°22'1 0.0
2015-Oct-31 15:10N 40°34' E 014°20'5 7.1
2015-Oct-31 14:32N 40°33' E 014°15'0 0.2
2015-Oct-31 13:29N 40°34' E 014°14'0 0.0
2015-Oct-31 12:28N 40°34' E 014°14'0 0.0
2015-Oct-31 11:28N 40°34' E 014°14'0 0.0
2015-Oct-31 10:22N 40°34' E 014°14'5 5.8
2015-Oct-31 09:29N 40°34' E 014°21'8 0.4
2015-Oct-30 15:32N 40°36' E 014°31'1312.7
2015-Oct-30 14:32N 40°33' E 014°15'1 0.2
2015-Oct-30 10:07N 40°34' E 014°16'3 6.0
2015-Oct-30 09:33N 40°34' E 014°20'5 0.1
2015-Oct-28 09:16N 40°36' E 014°26'9 0.5
2015-Oct-27 14:17N 40°33' E 014°14'0 0.2
2015-Oct-27 13:28N 40°34' E 014°14'0 0.0
2015-Oct-27 12:31N 40°34' E 014°14'0 0.0
2015-Oct-27 11:31N 40°34' E 014°14'0 0.0
2015-Oct-27 10:29N 40°34' E 014°14'  

Dump ship's entire track history